Flight Track Log - Related Links

Times and Time Zones

All times are in EDT time to prevent confusion due to time zone crossing. See the JIA2396 flight status page for this flight to view local times or setup timezone preferences in your user account.

Time Position Orientation Groundspeed Altitude Reporting Facility
EDT Latitude Longitude Course Direction KTS MPH feet Rate Location/Type
Wed 10:50:22 PM 38.8000 -77.0333 63° Northeast 162 186 1,800  Level Potomac TRACON
Wed 10:51:28 PM 38.7500 -77.0167 165° South 239 275 4,200 2,352 Climbing Potomac TRACON
Wed 10:52:00 PM 38.9769 -76.6695 67° East  Level FlightAware Approximate
Wed 10:53:00 PM 39.0212 -76.5392 62° Northeast  Level FlightAware Approximate
Wed 10:53:18 PM 38.8000 -76.9047 60° Northeast 243 280 8,700  Level Washington Center
Wed 10:54:00 PM 39.0734 -76.4138 62° Northeast  Level FlightAware Approximate
Wed 10:54:19 PM 38.8692 -76.8475 33° Northeast 263 303 11,100  Level Washington Center
Wed 10:55:00 PM 39.1222 -76.2862 63° Northeast  Level FlightAware Approximate
Wed 10:55:19 PM 38.9386 -76.7900 33° Northeast 283 326 13,800  Level Washington Center
Wed 10:56:18 PM 38.9917 -76.7081 50° Northeast 288 331 15,100 600 Climbing Washington Center
Wed 10:57:19 PM 39.0258 -76.6017 68° East 295 339 15,000 793 Descending Washington Center
Wed 10:58:19 PM 39.0581 -76.5006 68° East 301 346 16,700 1,008 Climbing Washington Center
Wed 10:59:18 PM 39.0942 -76.3939 66° East 311 358 17,000 202 Climbing Washington Center
Wed 11:00:18 PM 39.1303 -76.2872 66° East 316 364 17,100 793 Climbing Washington Center
Wed 11:01:19 PM 39.1536 -76.1750 75° East 316 364 18,600 1,537 Climbing Washington Center
Wed 11:02:19 PM 39.1731 -76.0547 78° East 321 369 20,200 1,200 Climbing Washington Center
Wed 11:03:19 PM 39.1858 -75.9317 82° East 331 381 21,000 446 Climbing Washington Center
Wed 11:04:20 PM 39.2361 -75.8247 59° Northeast 342 394 21,100 605 Climbing Washington Center
Wed 11:05:18 PM 39.3072 -75.7336 45° Northeast 342 394 22,200 966 Climbing Washington Center
Wed 11:06:18 PM 39.3781 -75.6400 46° Northeast 347 399 23,000 400 Climbing Washington Center
Wed 11:07:18 PM 39.4511 -75.5486 44° Northeast 352 405 23,000  Level Washington Center
Wed 11:08:19 PM 39.5239 -75.4544 45° Northeast 358 412 23,000  Level Washington Center
Wed 11:09:19 PM 39.5967 -75.3600 45° Northeast 358 412 23,000  Level Washington Center
Wed 11:11:20 PM 39.6769 -75.1161 67° East 369 425 23,000  Level New York Center
Wed 11:12:20 PM 39.7053 -74.9694 76° East 369 425 23,000  Level New York Center
Wed 11:13:19 PM 39.7328 -74.8361 75° East 375 432 23,000  Level New York Center
Wed 11:14:18 PM 39.7764 -74.7197 64° Northeast 360 414 23,000  Level New York Center
Wed 11:15:19 PM 39.8278 -74.6144 58° Northeast 365 420 23,000  Level New York Center
Wed 11:16:19 PM 39.8861 -74.4878 59° Northeast 370 426 23,000  Level New York Center
Wed 11:17:19 PM 39.9442 -74.3692 57° Northeast 377 434 23,000  Level New York Center
Wed 11:18:20 PM 39.9975 -74.2528 59° Northeast 372 428 23,000  Level New York Center
Wed 11:19:20 PM 40.0511 -74.1361 59° Northeast 372 428 23,000 -418 Level New York Center
Wed 11:20:58 PM 40.1419 -73.9383 59° Northeast 396 456 21,900 -949 Descending Boston Center
Wed 11:21:58 PM 40.1914 -73.8253 60° Northeast 386 444 20,500 -1,339 Descending Boston Center
Wed 11:22:59 PM 40.2489 -73.7206 54° Northeast 366 421 19,200 -1,328 Descending Boston Center
Wed 11:24:00 PM 40.2978 -73.6100 60° Northeast 354 407 17,800 -1,091 Descending Boston Center
Wed 11:25:00 PM 40.3469 -73.5075 58° Northeast 344 396 17,000 -458 Descending Boston Center
Wed 11:25:58 PM 40.4161 -73.4431 35° Northeast 308 354 16,900  Descending Boston Center
Wed 11:27:16 PM 40.5333 -73.4000 16° North 351 404 17,000 -273 Climbing New York TRACON
Wed 11:28:10 PM 40.6167 -73.3667 17° North 346 398 16,300 -900 Descending New York TRACON
Wed 11:29:16 PM 40.7167 -73.3333 14° North 320 368 15,200 -650 Descending New York TRACON
Wed 11:30:10 PM 40.7833 -73.3000 21° North 313 360 15,000 -850 Descending New York TRACON
Wed 11:31:16 PM 40.8500 -73.2000 49° Northeast 316 364 13,500 -1,409 Descending New York TRACON
Wed 11:32:22 PM 40.9000 -73.0833 60° Northeast 312 359 11,900 -1,500 Descending New York TRACON
Wed 11:33:16 PM 40.9333 -73.0000 62° Northeast 305 351 10,500 -1,737 Descending New York TRACON
Wed 11:34:16 PM 41.0167 -72.9667 17° North 307 353 8,600 -1,850 Descending New York TRACON
Wed 11:35:16 PM 41.0500 -73.0500 298° West 287 330 6,800 -1,800 Descending New York TRACON
Wed 11:36:16 PM 41.0833 -73.1333 298° West 271 312 5,000 -1,400 Descending New York TRACON
Wed 11:37:16 PM 41.1000 -73.2167 285° West 255 293 4,000 -476 Descending New York TRACON
Wed 11:38:22 PM 41.1333 -73.3000 298° West 214 246 4,000  Level New York TRACON
Wed 11:39:22 PM 41.1500 -73.3833 285° West 218 251 4,000 -500 Level New York TRACON
Wed 11:40:22 PM 41.1667 -73.4500 288° West 225 259 3,000 -550 Descending New York TRACON
Wed 11:41:22 PM 41.1833 -73.5167 288° West 196 226 2,900 -350 Descending New York TRACON
Wed 11:42:22 PM 41.1667 -73.6000 255° West 203 234 2,300 -450 Descending New York TRACON
Wed 11:43:22 PM 41.1500 -73.6667 252° West 197 227 2,000 -150 Descending New York TRACON
Wed 11:44:22 PM 41.1500 -73.7333 270° West 164 189 2,000 -300 Level New York TRACON
Wed 11:45:22 PM 41.1167 -73.7500 201° Southwest 141 162 1,400 -684 Descending New York TRACON
Wed 11:46:16 PM 41.0833 -73.7167 143° Southeast 142 163 700 -778 Descending New York TRACON

Login

Don't have an account? Register now (free) for customized features, flight alerts, and more!